createdAt,value
2022-08-14T00:00:25.053Z,24.97
2022-08-14T00:05:31.651Z,24.92
2022-08-14T00:10:51.141Z,24.82
2022-08-14T00:16:41.070Z,24.80
2022-08-14T00:21:42.024Z,24.73
2022-08-14T00:26:43.868Z,24.67
2022-08-14T00:31:46.051Z,24.63
2022-08-14T00:36:48.622Z,24.57
2022-08-14T00:41:51.356Z,24.57
2022-08-14T00:46:54.427Z,24.52
2022-08-14T00:52:01.123Z,24.48
2022-08-14T00:57:03.341Z,24.47
2022-08-14T01:02:05.956Z,24.39
2022-08-14T01:07:14.292Z,24.39
2022-08-14T01:12:27.348Z,24.36
2022-08-14T01:17:59.210Z,24.31
2022-08-14T01:23:02.485Z,24.27
2022-08-14T01:28:06.930Z,24.21
2022-08-14T01:33:13.472Z,24.20
2022-08-14T01:38:15.388Z,24.13
2022-08-14T01:43:35.944Z,24.09
2022-08-14T01:48:40.462Z,24.05
2022-08-14T01:53:45.177Z,24.01
2022-08-14T01:58:57.632Z,24.00
2022-08-14T02:03:59.891Z,23.99
2022-08-14T02:09:04.412Z,23.96
2022-08-14T02:14:31.250Z,23.88
2022-08-14T02:19:35.840Z,23.85
2022-08-14T02:24:40.261Z,23.80
2022-08-14T02:29:56.307Z,23.77
2022-08-14T02:35:07.019Z,23.76
2022-08-14T02:40:12.746Z,23.73
2022-08-14T02:45:15.637Z,23.67
2022-08-14T02:50:20.087Z,23.63
2022-08-14T02:55:31.033Z,23.59
2022-08-14T03:00:39.919Z,23.52
2022-08-14T03:05:42.518Z,23.45
2022-08-14T03:10:49.050Z,23.40
2022-08-14T03:15:56.286Z,23.28
2022-08-14T03:21:02.816Z,23.29
2022-08-14T03:26:05.496Z,23.25
2022-08-14T03:31:13.142Z,23.19
2022-08-14T03:37:38.856Z,23.17
2022-08-14T03:41:39.493Z,23.15
2022-08-14T03:46:54.938Z,23.10
2022-08-14T03:52:00.803Z,23.02
2022-08-14T03:57:03.939Z,22.96
2022-08-14T04:02:09.550Z,22.93
2022-08-14T04:07:27.994Z,22.84
2022-08-14T04:12:36.061Z,22.83
2022-08-14T04:17:38.091Z,22.80
2022-08-14T04:22:44.153Z,22.73
2022-08-14T04:28:01.865Z,22.70
2022-08-14T04:33:13.375Z,22.60
2022-08-14T04:38:40.754Z,22.60
2022-08-14T04:43:42.972Z,22.50
2022-08-14T04:48:51.254Z,22.55
2022-08-14T04:53:57.485Z,22.51
2022-08-14T04:59:05.232Z,22.48
2022-08-14T05:04:16.074Z,22.44
2022-08-14T05:09:18.283Z,22.41
2022-08-14T05:14:45.561Z,22.35
2022-08-14T05:21:04.433Z,22.34
2022-08-14T05:25:07.457Z,22.32
2022-08-14T05:30:09.763Z,22.25
2022-08-14T05:35:11.992Z,22.23
2022-08-14T05:40:16.792Z,22.36
2022-08-14T05:45:20.454Z,22.43
2022-08-14T05:50:22.140Z,22.42
2022-08-14T05:55:26.174Z,22.43
2022-08-14T06:00:37.174Z,22.53
2022-08-14T06:05:41.728Z,22.52
2022-08-14T06:10:44.381Z,22.55
2022-08-14T06:15:47.640Z,22.55
2022-08-14T06:20:49.601Z,22.55
2022-08-14T06:25:52.710Z,22.68
2022-08-14T06:30:56.105Z,22.70
2022-08-14T06:35:58.320Z,22.66
2022-08-14T06:41:00.627Z,22.68
2022-08-14T06:46:04.021Z,22.65
2022-08-14T06:51:06.087Z,22.69
2022-08-14T06:56:07.800Z,22.83
2022-08-14T07:01:28.347Z,22.86
2022-08-14T07:06:46.586Z,22.96
2022-08-14T07:11:49.709Z,22.88
2022-08-14T07:16:51.393Z,22.98
2022-08-14T07:21:53.027Z,23.07
2022-08-14T07:26:55.075Z,23.09
2022-08-14T07:31:57.016Z,23.19
2022-08-14T07:37:01.098Z,23.28
2022-08-14T07:42:02.895Z,23.50
2022-08-14T07:47:05.286Z,23.65
2022-08-14T07:52:07.428Z,23.69
2022-08-14T07:57:12.176Z,23.85
2022-08-14T08:02:19.244Z,23.97
2022-08-14T08:07:24.916Z,24.15
2022-08-14T08:12:33.673Z,24.29
2022-08-14T08:17:39.018Z,24.58
2022-08-14T08:22:48.431Z,24.66
2022-08-14T08:28:08.603Z,24.79
2022-08-14T08:33:11.583Z,24.98
2022-08-14T08:39:15.646Z,25.18
2022-08-14T08:43:46.138Z,25.42
2022-08-14T08:54:19.907Z,25.85
2022-08-14T08:59:31.661Z,26.01
2022-08-14T09:04:45.221Z,26.18
2022-08-14T09:09:59.155Z,26.27
2022-08-14T09:15:09.057Z,26.47
2022-08-14T09:20:29.395Z,26.67
2022-08-14T09:26:00.315Z,26.92
2022-08-14T09:30:57.851Z,27.13
2022-08-14T09:36:18.721Z,27.27
2022-08-14T09:42:20.543Z,27.44
2022-08-14T09:47:21.296Z,27.53
2022-08-14T09:52:34.285Z,27.60
2022-08-14T09:57:36.261Z,27.85
2022-08-14T10:02:46.139Z,28.03
2022-08-14T10:07:53.721Z,28.03
2022-08-14T10:13:02.463Z,28.17
2022-08-14T10:18:04.468Z,28.30
2022-08-14T10:23:16.144Z,28.66
2022-08-14T10:28:57.448Z,28.80
2022-08-14T10:33:45.962Z,28.85
2022-08-14T10:38:58.271Z,29.19
2022-08-14T10:44:21.440Z,29.20
2022-08-14T10:49:26.531Z,29.33
2022-08-14T10:54:35.859Z,29.49
2022-08-14T11:00:13.621Z,29.55
2022-08-14T11:05:27.098Z,29.68
2022-08-14T11:10:48.817Z,29.89
2022-08-14T11:15:51.121Z,29.81
2022-08-14T11:20:56.780Z,29.96
2022-08-14T11:26:01.945Z,30.30
2022-08-14T11:31:08.504Z,30.51
2022-08-14T11:36:18.529Z,30.50
2022-08-14T11:41:21.091Z,30.53
2022-08-14T11:46:29.627Z,30.77
2022-08-14T11:51:36.112Z,30.99
2022-08-14T11:56:45.749Z,31.00
2022-08-14T12:01:48.890Z,31.15
2022-08-14T12:06:55.990Z,31.34
2022-08-14T12:11:58.287Z,31.42
2022-08-14T12:17:03.427Z,31.27
2022-08-14T12:22:06.871Z,31.23
2022-08-14T12:27:08.993Z,31.51
2022-08-14T12:32:12.739Z,31.72
2022-08-14T12:37:15.536Z,31.93
2022-08-14T12:42:27.262Z,31.71
2022-08-14T12:47:37.906Z,31.91
2022-08-14T12:52:54.080Z,32.10
2022-08-14T12:58:05.989Z,32.02
2022-08-14T13:03:29.398Z,32.31
2022-08-14T13:08:34.356Z,32.45
2022-08-14T13:13:37.783Z,32.05
2022-08-14T13:18:48.627Z,31.90
2022-08-14T13:24:02.996Z,31.92
2022-08-14T13:29:09.362Z,32.01
2022-08-14T13:34:13.432Z,32.14
2022-08-14T13:39:21.102Z,32.35
2022-08-14T13:44:26.667Z,32.06
2022-08-14T13:49:29.160Z,32.28
2022-08-14T13:54:34.557Z,32.15
2022-08-14T13:59:38.797Z,31.94
2022-08-14T14:04:42.767Z,31.77
2022-08-14T14:09:52.810Z,32.24
2022-08-14T14:15:48.353Z,32.30
2022-08-14T14:20:50.995Z,32.31
2022-08-14T14:25:56.956Z,32.34
2022-08-14T14:31:06.922Z,32.36
2022-08-14T14:36:14.066Z,32.23
2022-08-14T14:41:20.665Z,32.29
2022-08-14T14:46:36.630Z,32.05
2022-08-14T14:51:43.402Z,32.01
2022-08-14T14:56:50.316Z,31.93
2022-08-14T15:01:59.584Z,31.80
2022-08-14T15:07:01.475Z,31.79
2022-08-14T15:12:16.098Z,31.72
2022-08-14T15:17:28.403Z,31.64
2022-08-14T15:22:38.589Z,31.64
2022-08-14T15:27:45.906Z,31.64
2022-08-14T15:32:53.244Z,31.45
2022-08-14T15:37:56.018Z,31.28
2022-08-14T15:42:57.990Z,31.13
2022-08-14T15:48:01.657Z,30.90
2022-08-14T15:53:03.520Z,30.76
2022-08-14T15:58:08.139Z,30.74
2022-08-14T16:03:18.215Z,30.73
2022-08-14T16:08:30.822Z,30.49
2022-08-14T16:13:42.023Z,30.41
2022-08-14T16:18:44.425Z,30.38
2022-08-14T16:23:47.628Z,30.26
2022-08-14T16:29:04.990Z,30.28
2022-08-14T16:34:45.404Z,30.19
2022-08-14T16:39:30.611Z,30.04
2022-08-14T16:44:44.029Z,30.01
2022-08-14T16:50:03.033Z,29.74
2022-08-14T16:55:09.601Z,29.80
2022-08-14T17:00:28.706Z,29.77
2022-08-14T17:05:38.263Z,29.74
2022-08-14T17:10:42.770Z,29.64
2022-08-14T17:16:07.731Z,29.56
2022-08-14T17:21:38.086Z,29.40
2022-08-14T17:26:45.566Z,29.45
2022-08-14T17:32:02.236Z,29.31
2022-08-14T17:37:04.275Z,29.29
2022-08-14T17:42:08.055Z,29.27
2022-08-14T17:47:18.638Z,29.16
2022-08-14T17:52:34.137Z,29.07
2022-08-14T17:57:40.884Z,29.00
2022-08-14T18:02:51.094Z,28.97
2022-08-14T18:08:31.729Z,28.89
2022-08-14T18:13:16.480Z,28.81
2022-08-14T18:18:18.615Z,28.80
2022-08-14T18:23:21.720Z,28.71
2022-08-14T18:28:49.014Z,28.73
2022-08-14T18:34:31.174Z,28.68
2022-08-14T18:40:01.570Z,28.53
2022-08-14T18:45:29.487Z,28.44
2022-08-14T18:50:52.961Z,28.39
2022-08-14T18:56:09.793Z,28.33
2022-08-14T19:01:34.160Z,28.27
2022-08-14T19:06:45.788Z,28.18
2022-08-14T19:12:05.307Z,28.09
2022-08-14T19:17:42.132Z,28.06
2022-08-14T19:22:44.103Z,28.00
2022-08-14T19:28:31.010Z,27.91
2022-08-14T19:33:48.870Z,27.84
2022-08-14T19:38:57.648Z,27.79
2022-08-14T19:44:16.475Z,27.75
2022-08-14T19:50:08.617Z,27.72
2022-08-14T19:54:56.891Z,27.61
2022-08-14T20:00:29.553Z,27.58
2022-08-14T20:05:45.519Z,27.56
2022-08-14T20:11:08.411Z,27.48
2022-08-14T20:16:20.974Z,27.47
2022-08-14T20:21:35.313Z,27.43
2022-08-14T20:26:42.147Z,27.39
2022-08-14T20:31:48.811Z,27.30
2022-08-14T20:37:16.405Z,27.25
2022-08-14T20:42:49.514Z,27.19
2022-08-14T20:47:56.497Z,27.13
2022-08-14T20:53:05.820Z,27.00
2022-08-14T20:58:09.860Z,26.92
2022-08-14T21:03:56.356Z,26.85
2022-08-14T21:09:03.071Z,26.76
2022-08-14T21:14:21.054Z,26.78
2022-08-14T21:19:30.164Z,26.70
2022-08-14T21:24:39.227Z,26.65
2022-08-14T21:29:55.423Z,26.57
2022-08-14T21:35:02.103Z,26.54
2022-08-14T21:40:18.734Z,26.54
2022-08-14T21:45:35.800Z,26.53
2022-08-14T21:51:02.040Z,26.49
2022-08-14T21:56:03.917Z,26.45
2022-08-14T22:01:05.930Z,26.39
2022-08-14T22:06:13.277Z,26.31
2022-08-14T22:11:22.602Z,26.26
2022-08-14T22:17:01.992Z,26.25
2022-08-14T22:21:51.126Z,26.23
2022-08-14T22:26:52.849Z,26.20
2022-08-14T22:31:55.739Z,26.12
2022-08-14T22:36:57.904Z,26.08
2022-08-14T22:42:01.555Z,26.03
2022-08-14T22:47:03.837Z,26.01
2022-08-14T22:52:32.172Z,25.96
2022-08-14T22:57:37.855Z,25.93
2022-08-14T23:02:44.843Z,25.87
2022-08-14T23:08:57.859Z,25.81
2022-08-14T23:13:17.420Z,25.80
2022-08-14T23:18:24.264Z,25.79
2022-08-14T23:23:31.633Z,25.68
2022-08-14T23:28:56.946Z,25.66
2022-08-14T23:34:00.049Z,25.58
2022-08-14T23:39:07.035Z,25.56
2022-08-14T23:44:13.569Z,25.53
2022-08-14T23:49:16.559Z,25.47
2022-08-14T23:54:49.411Z,25.42
2022-08-14T23:59:45.040Z,25.42
